Time;durP1;ratioP1;P1;durP2;ratioP2;P2;SDS_P1;SDS_P2;PMS_P1;PMS_P2;Temp;Humidity;BMP_temperature;BMP_pressure;BME280_temperature;BME280_humidity;BME280_pressure;Samples;Min_cycle;Max_cycle;Signal;HPM_P1;HPM_P2
2021/09/17 00:02:19;;;;;;;21.90;16.73;;;;;13.10;101281.00;;;;10527815;28;20199;-78
2021/09/17 00:07:21;;;;;;;21.77;16.83;;;;;13.00;101274.00;;;;10511023;28;20192;-78
2021/09/17 00:12:22;;;;;;;24.07;17.20;;;;;13.00;101277.00;;;;10529515;27;20231;-79
2021/09/17 00:17:23;;;;;;;18.83;15.33;;;;;13.00;101274.00;;;;10528806;27;20459;-78
2021/09/17 00:22:25;;;;;;;20.13;14.70;;;;;13.00;101269.00;;;;10528359;27;20230;-79
2021/09/17 00:27:26;;;;;;;18.23;14.97;;;;;12.90;101266.00;;;;10537068;27;20272;-78
2021/09/17 00:32:27;;;;;;;23.10;15.27;;;;;12.90;101261.00;;;;10503467;28;20250;-79
2021/09/17 00:37:28;;;;;;;19.23;15.60;;;;;12.90;101263.00;;;;10522447;27;20196;-79
2021/09/17 00:42:30;;;;;;;22.13;15.63;;;;;12.90;101254.00;;;;10514925;27;20232;-79
2021/09/17 00:47:31;;;;;;;20.87;16.13;;;;;12.90;101254.00;;;;10542805;27;20196;-79
2021/09/17 00:52:33;;;;;;;22.50;16.43;;;;;12.80;101238.00;;;;10513543;27;20216;-79
2021/09/17 00:57:35;;;;;;;21.17;17.03;;;;;12.80;101239.00;;;;10496125;27;20207;-78
2021/09/17 01:02:37;;;;;;;28.77;18.77;;;;;12.70;101229.00;;;;10530504;27;20211;-81
2021/09/17 01:07:39;;;;;;;27.83;18.80;;;;;12.70;101220.00;;;;10531086;28;20204;-80
2021/09/17 01:12:41;;;;;;;24.07;18.23;;;;;12.60;101221.00;;;;10521402;28;20216;-80
2021/09/17 01:17:44;;;;;;;25.27;19.80;;;;;12.50;101210.00;;;;10546364;28;20727;-80
2021/09/17 01:22:47;;;;;;;31.03;22.83;;;;;12.50;101209.00;;;;10546381;28;20539;-80
2021/09/17 01:27:51;;;;;;;32.47;23.07;;;;;12.50;101209.00;;;;10546272;27;20204;-80
2021/09/17 01:32:53;;;;;;;34.83;26.00;;;;;12.50;101200.00;;;;10546851;27;20196;-81
2021/09/17 01:37:54;;;;;;;33.50;25.00;;;;;12.50;101199.00;;;;10547265;27;20219;-80
2021/09/17 01:42:55;;;;;;;36.57;25.07;;;;;12.50;101198.00;;;;10530417;27;20224;-80
2021/09/17 01:47:56;;;;;;;37.93;26.53;;;;;12.50;101207.00;;;;10511949;27;20214;-80
2021/09/17 01:52:57;;;;;;;39.57;28.27;;;;;12.60;101202.00;;;;10530359;27;20203;-80
2021/09/17 01:57:59;;;;;;;38.63;28.43;;;;;12.70;101191.00;;;;10500365;27;20208;-80
2021/09/17 02:03:01;;;;;;;45.73;29.73;;;;;12.80;101195.00;;;;10488167;28;20303;-81
2021/09/17 02:08:03;;;;;;;35.57;27.03;;;;;12.80;101195.00;;;;10530042;28;20233;-81
2021/09/17 02:13:05;;;;;;;33.33;25.50;;;;;12.90;101184.00;;;;10487532;28;20292;-81
2021/09/17 02:18:06;;;;;;;33.70;24.67;;;;;12.90;101195.00;;;;10504299;28;20197;-80
2021/09/17 02:23:09;;;;;;;31.57;25.50;;;;;12.90;101189.00;;;;10504431;28;20196;-80
2021/09/17 02:28:10;;;;;;;33.13;23.70;;;;;12.90;101192.00;;;;10492037;28;20224;-81
2021/09/17 02:33:11;;;;;;;33.40;24.57;;;;;12.90;101193.00;;;;10497282;28;20193;-81
2021/09/17 02:38:12;;;;;;;37.43;24.93;;;;;12.80;101178.00;;;;10455104;28;20229;-80
2021/09/17 02:43:13;;;;;;;36.30;24.10;;;;;12.80;101174.00;;;;10462462;28;20193;-81
2021/09/17 02:48:15;;;;;;;36.57;26.77;;;;;12.80;101169.00;;;;10445660;28;20565;-81
2021/09/17 02:53:16;;;;;;;41.90;27.20;;;;;12.70;101161.00;;;;10429078;28;20228;-81
2021/09/17 02:58:17;;;;;;;42.63;27.93;;;;;12.80;101162.00;;;;10461759;28;20212;-81
2021/09/17 03:03:18;;;;;;;46.73;29.03;;;;;12.70;101152.00;;;;10488548;28;20913;-81
2021/09/17 03:08:19;;;;;;;50.33;33.27;;;;;12.70;101153.00;;;;10487055;28;20274;-80
2021/09/17 03:13:20;;;;;;;53.10;32.03;;;;;12.70;101140.00;;;;10492005;28;20644;-83
2021/09/17 03:18:22;;;;;;;57.13;35.13;;;;;12.70;101142.00;;;;10491306;28;20197;-80
2021/09/17 03:23:23;;;;;;;57.50;34.70;;;;;12.60;101137.00;;;;10492670;28;20211;-80
2021/09/17 03:28:24;;;;;;;56.33;37.07;;;;;12.60;101137.00;;;;10508577;28;20274;-80
2021/09/17 03:33:25;;;;;;;62.17;36.60;;;;;12.60;101130.00;;;;10450073;28;20227;-80
2021/09/17 03:38:26;;;;;;;59.93;37.40;;;;;12.50;101123.00;;;;10471532;28;20225;-80
2021/09/17 03:43:28;;;;;;;67.67;42.33;;;;;12.50;101128.00;;;;10466842;28;20204;-81
2021/09/17 03:48:29;;;;;;;64.00;40.53;;;;;12.50;101126.00;;;;10466642;28;20220;-81
2021/09/17 03:53:30;;;;;;;67.67;40.67;;;;;12.50;101125.00;;;;10505316;28;20207;-81
2021/09/17 03:58:31;;;;;;;73.80;42.93;;;;;12.40;101108.00;;;;10548460;28;20215;-81
2021/09/17 04:03:32;;;;;;;78.80;44.60;;;;;12.40;101107.00;;;;10493344;28;20197;-81
2021/09/17 04:08:33;;;;;;;78.53;45.47;;;;;12.40;101120.00;;;;10507607;28;20216;-81
2021/09/17 04:13:34;;;;;;;74.47;46.10;;;;;12.40;101118.00;;;;10473108;28;20196;-80
2021/09/17 04:18:36;;;;;;;88.03;49.07;;;;;12.40;101120.00;;;;10489359;28;20209;-81
2021/09/17 04:23:37;;;;;;;90.50;49.57;;;;;12.40;101116.00;;;;10472793;28;20193;-80
2021/09/17 04:28:38;;;;;;;90.57;50.93;;;;;12.40;101116.00;;;;10506312;28;20269;-81
2021/09/17 04:33:39;;;;;;;95.93;52.30;;;;;12.40;101119.00;;;;10519894;28;20232;-81
2021/09/17 04:38:40;;;;;;;93.57;52.00;;;;;12.40;101122.00;;;;10457039;28;20715;-81
2021/09/17 04:43:41;;;;;;;98.27;51.20;;;;;12.40;101118.00;;;;10465386;28;20247;-81
2021/09/17 04:48:43;;;;;;;94.53;53.20;;;;;12.40;101123.00;;;;10464582;28;20225;-81
2021/09/17 04:53:44;;;;;;;102.80;55.17;;;;;12.30;101126.00;;;;10446843;28;20209;-81
2021/09/17 04:58:45;;;;;;;99.03;55.53;;;;;12.40;101142.00;;;;10484000;28;20195;-81
2021/09/17 05:03:47;;;;;;;119.70;61.30;;;;;12.40;101134.00;;;;10510654;28;20193;-81
2021/09/17 05:08:48;;;;;;;112.57;56.57;;;;;12.40;101140.00;;;;10447376;28;20213;-80
2021/09/17 05:13:50;;;;;;;124.40;59.17;;;;;12.40;101144.00;;;;10440229;28;20205;-81
2021/09/17 05:18:51;;;;;;;116.50;59.80;;;;;12.50;101150.00;;;;10522869;28;20192;-81
2021/09/17 05:23:52;;;;;;;122.23;58.87;;;;;12.50;101148.00;;;;10488904;28;20297;-80
2021/09/17 05:28:53;;;;;;;113.37;57.53;;;;;12.50;101153.00;;;;10493397;28;20742;-81
2021/09/17 05:33:55;;;;;;;115.13;58.43;;;;;12.60;101162.00;;;;10486727;28;20220;-81
2021/09/17 05:38:56;;;;;;;115.00;58.30;;;;;12.70;101160.00;;;;10503763;28;20227;-81
2021/09/17 05:43:57;;;;;;;124.30;60.23;;;;;12.90;101163.00;;;;10487414;28;20204;-81
2021/09/17 05:48:58;;;;;;;128.03;61.97;;;;;13.20;101174.00;;;;10470008;28;20581;-81
2021/09/17 05:53:59;;;;;;;127.23;64.63;;;;;13.40;101173.00;;;;10461671;28;20204;-81
2021/09/17 05:59:01;;;;;;;124.97;61.30;;;;;13.60;101183.00;;;;10482251;28;20211;-81
2021/09/17 06:04:02;;;;;;;122.80;60.10;;;;;13.90;101208.00;;;;10469711;28;20200;-81
2021/09/17 06:09:03;;;;;;;123.80;65.37;;;;;14.10;101215.00;;;;10503364;28;20217;-81
2021/09/17 06:14:05;;;;;;;115.03;59.97;;;;;14.20;101209.00;;;;10503054;28;20422;-81
2021/09/17 06:19:06;;;;;;;115.10;58.43;;;;;14.30;101209.00;;;;10465801;28;20213;-81
2021/09/17 06:24:07;;;;;;;99.43;55.20;;;;;14.40;101199.00;;;;10454188;28;20851;-81
2021/09/17 06:29:08;;;;;;;110.70;56.20;;;;;14.50;101193.00;;;;10474928;28;20217;-81
2021/09/17 06:34:10;;;;;;;112.03;57.63;;;;;14.60;101198.00;;;;10489576;28;20201;-81
2021/09/17 06:39:11;;;;;;;100.80;55.60;;;;;14.60;101189.00;;;;10493747;28;20243;-81
2021/09/17 06:44:13;;;;;;;103.27;55.03;;;;;14.70;101184.00;;;;10494064;28;20204;-81
2021/09/17 06:49:14;;;;;;;100.17;54.00;;;;;14.70;101193.00;;;;10491697;28;20216;-81
2021/09/17 06:54:15;;;;;;;105.30;55.33;;;;;14.70;101190.00;;;;10493577;28;20201;-82
2021/09/17 06:59:16;;;;;;;98.00;52.17;;;;;14.70;101187.00;;;;10460554;28;20196;-81
2021/09/17 07:04:17;;;;;;;103.07;53.90;;;;;14.70;101188.00;;;;10501832;28;20197;-81
2021/09/17 07:09:18;;;;;;;96.53;52.20;;;;;15.10;101199.00;;;;10476403;28;20254;-81
2021/09/17 07:14:19;;;;;;;109.07;60.33;;;;;15.60;101201.00;;;;10493389;28;20197;-81
2021/09/17 07:19:23;;;;;;;94.93;51.22;;;;;16.00;101204.00;;;;10469172;28;20232;-81
2021/09/17 07:24:24;;;;;;;94.55;50.47;;;;;16.50;101194.00;;;;10460855;28;20201;-81
2021/09/17 07:29:25;;;;;;;85.35;47.88;;;;;16.90;101192.00;;;;10479701;28;20220;-81
2021/09/17 07:34:28;;;;;;;85.63;47.45;;;;;17.20;101205.00;;;;10478692;28;20596;-80
2021/09/17 07:39:29;;;;;;;77.15;46.65;;;;;17.40;101202.00;;;;10484741;28;20762;-81
2021/09/17 07:44:32;;;;;;;76.40;44.90;;;;;17.80;101207.00;;;;10500979;28;20207;-80
2021/09/17 07:49:33;;;;;;;72.53;44.65;;;;;18.20;101200.00;;;;10500572;28;20668;-81
2021/09/17 07:54:34;;;;;;;76.07;44.03;;;;;18.40;101198.00;;;;10509022;28;20264;-80
2021/09/17 07:59:36;;;;;;;71.82;42.50;;;;;18.60;101197.00;;;;10462732;28;20205;-81
2021/09/17 08:04:38;;;;;;;78.60;43.10;;;;;18.90;101197.00;;;;10440429;28;20259;-81
2021/09/17 08:09:39;;;;;;;70.07;41.50;;;;;19.20;101196.00;;;;10459382;28;20270;-81
2021/09/17 08:14:40;;;;;;;72.53;41.10;;;;;19.50;101202.00;;;;10488099;28;20568;-79
2021/09/17 08:19:41;;;;;;;69.28;39.80;;;;;19.90;101198.00;;;;10481610;28;20205;-81
2021/09/17 08:24:43;;;;;;;68.93;41.28;;;;;20.30;101184.00;;;;10458535;28;20205;-81
2021/09/17 08:29:44;;;;;;;68.20;41.03;;;;;20.70;101171.00;;;;10468365;28;20236;-81
2021/09/17 08:35:09;;;;;;;60.13;36.45;;;;;21.10;101151.00;;;;10473419;28;20484;-81
2021/09/17 08:40:31;;;;;;;46.58;31.65;;;;;21.50;101147.00;;;;10474175;28;20216;-81
2021/09/17 08:45:32;;;;;;;49.88;31.92;;;;;21.90;101146.00;;;;10487083;28;20205;-81
2021/09/17 08:50:34;;;;;;;40.95;29.02;;;;;22.30;101150.00;;;;10477901;28;20661;-80
2021/09/17 08:55:35;;;;;;;34.58;24.42;;;;;22.40;101149.00;;;;10537707;28;20674;-80
2021/09/17 09:00:38;;;;;;;32.70;22.00;;;;;22.70;101147.00;;;;10494969;28;20662;-79
2021/09/17 09:05:41;;;;;;;32.65;21.10;;;;;22.80;101152.00;;;;10484200;28;20307;-79
2021/09/17 09:10:42;;;;;;;34.85;23.80;;;;;22.80;101148.00;;;;10460029;28;20214;-79
2021/09/17 09:15:43;;;;;;;38.42;24.88;;;;;22.20;101155.00;;;;10509357;28;20207;-80
2021/09/17 09:20:47;;;;;;;38.33;25.52;;;;;22.10;101150.00;;;;10471119;28;20212;-79
2021/09/17 09:25:56;;;;;;;31.17;20.38;;;;;22.10;101145.00;;;;10487289;28;20200;-80
2021/09/17 09:31:06;;;;;;;34.75;22.15;;;;;23.30;101143.00;;;;10468202;28;20228;-78
2021/09/17 09:36:15;;;;;;;33.03;20.35;;;;;23.60;101155.00;;;;10504509;28;20203;-78
2021/09/17 09:41:18;;;;;;;23.77;16.73;;;;;23.00;101166.00;;;;10499251;28;20231;-78
2021/09/17 09:46:27;;;;;;;28.08;18.33;;;;;23.30;101155.00;;;;10498214;28;20642;-79
2021/09/17 09:51:30;;;;;;;25.17;18.17;;;;;24.40;101157.00;;;;10492834;28;20240;-79
2021/09/17 09:56:33;;;;;;;27.05;18.67;;;;;24.70;101158.00;;;;10468846;28;20273;-80
2021/09/17 10:01:37;;;;;;;22.63;16.23;;;;;25.30;101165.00;;;;10481820;28;20231;-79
2021/09/17 10:06:40;;;;;;;23.27;13.45;;;;;25.70;101172.00;;;;10478214;28;20279;-80
2021/09/17 10:11:42;;;;;;;16.92;11.68;;;;;25.80;101175.00;;;;10455067;28;20237;-81
2021/09/17 10:16:44;;;;;;;21.20;14.25;;;;;26.10;101168.00;;;;10471684;28;20200;-80
2021/09/17 10:21:53;;;;;;;12.68;9.25;;;;;26.10;101173.00;;;;10508707;28;20207;-80
2021/09/17 10:27:00;;;;;;;17.05;11.45;;;;;26.10;101171.00;;;;10466252;28;20200;-80
2021/09/17 10:32:04;;;;;;;14.10;10.15;;;;;26.50;101172.00;;;;10510749;28;20244;-80
2021/09/17 10:37:06;;;;;;;14.55;11.73;;;;;26.60;101175.00;;;;10484509;28;20201;-80
2021/09/17 10:42:11;;;;;;;15.75;11.45;;;;;26.90;101173.00;;;;10481740;28;20445;-80
2021/09/17 10:47:40;;;;;;;10.90;8.27;;;;;27.00;101173.00;;;;10487150;28;20251;-79
2021/09/17 10:52:50;;;;;;;8.90;7.82;;;;;26.80;101168.00;;;;10470180;28;20217;-79
2021/09/17 10:58:27;;;;;;;8.80;6.40;;;;;27.10;101162.00;;;;10503217;28;20214;-79
2021/09/17 11:03:55;;;;;;;9.02;5.88;;;;;26.80;101164.00;;;;10491918;28;20287;-79
2021/09/17 11:09:03;;;;;;;14.10;8.27;;;;;26.80;101152.00;;;;10472605;28;20222;-79
2021/09/17 11:14:18;;;;;;;7.82;6.85;;;;;26.80;101146.00;;;;10441997;28;20205;-79
2021/09/17 11:19:19;;;;;;;9.88;8.30;;;;;27.00;101148.00;;;;10495993;28;20204;-79
2021/09/17 11:24:25;;;;;;;7.35;5.85;;;;;27.00;101144.00;;;;10449899;28;20220;-79
2021/09/17 11:29:26;;;;;;;10.27;8.63;;;;;27.30;101142.00;;;;10524804;28;20323;-79
2021/09/17 11:34:37;;;;;;;10.88;7.80;;;;;27.30;101137.00;;;;10508130;28;20193;-79
2021/09/17 11:39:39;;;;;;;7.65;6.47;;;;;27.00;101127.00;;;;10476722;28;20253;-79
2021/09/17 11:44:48;;;;;;;7.85;5.80;;;;;26.30;101124.00;;;;10505273;28;20219;-78
2021/09/17 11:49:54;;;;;;;8.75;6.68;;;;;26.10;101134.00;;;;10466034;28;20221;-79
2021/09/17 11:55:07;;;;;;;8.77;7.20;;;;;26.60;101126.00;;;;10493637;28;20939;-79
2021/09/17 12:00:10;;;;;;;10.77;7.90;;;;;26.80;101116.00;;;;10509405;28;20201;-78
2021/09/17 12:05:19;;;;;;;10.50;7.22;;;;;27.10;101123.00;;;;10498905;28;20221;-79
2021/09/17 12:10:26;;;;;;;6.13;5.07;;;;;27.30;101119.00;;;;10472899;28;20238;-79
2021/09/17 12:15:30;;;;;;;7.28;5.90;;;;;26.30;101110.00;;;;10534031;28;20205;-79
2021/09/17 12:20:54;;;;;;;8.48;5.60;;;;;26.50;101113.00;;;;10490654;28;20197;-80
2021/09/17 12:26:20;;;;;;;6.65;5.63;;;;;26.80;101111.00;;;;10515418;28;20196;-80
2021/09/17 12:31:29;;;;;;;10.38;6.07;;;;;27.20;101106.00;;;;10456457;28;20222;-79
2021/09/17 12:36:30;;;;;;;7.50;6.47;;;;;26.40;101099.00;;;;10482687;28;20253;-80
2021/09/17 12:41:32;;;;;;;8.75;5.70;;;;;25.80;101092.00;;;;10436761;28;20213;-79
2021/09/17 12:46:43;;;;;;;6.40;4.55;;;;;25.90;101094.00;;;;10481346;28;20676;-79
2021/09/17 12:51:55;;;;;;;5.65;4.57;;;;;25.90;101089.00;;;;10461916;28;20247;-79
2021/09/17 12:57:11;;;;;;;5.05;4.03;;;;;26.10;101084.00;;;;10464917;28;20216;-80
2021/09/17 13:02:13;;;;;;;5.90;4.63;;;;;26.70;101083.00;;;;10471280;28;20197;-79
2021/09/17 13:07:14;;;;;;;6.70;5.50;;;;;26.60;101081.00;;;;10482076;28;20197;-79
2021/09/17 13:12:15;;;;;;;7.30;5.72;;;;;26.30;101081.00;;;;10519404;28;20707;-79
2021/09/17 13:17:16;;;;;;;8.65;6.95;;;;;26.50;101077.00;;;;10498212;28;20252;-79
2021/09/17 13:22:17;;;;;;;8.18;5.43;;;;;26.20;101067.00;;;;10454297;28;20201;-79
2021/09/17 13:27:19;;;;;;;7.32;4.95;;;;;26.00;101075.00;;;;10531421;28;20732;-79
2021/09/17 13:32:22;;;;;;;6.35;5.13;;;;;26.30;101065.00;;;;10460668;28;20236;-79
2021/09/17 13:37:23;;;;;;;4.68;4.28;;;;;25.20;101066.00;;;;10486721;28;20186;-80
2021/09/17 13:42:25;;;;;;;7.18;5.40;;;;;26.00;101055.00;;;;10472841;28;20216;-80
2021/09/17 13:47:26;;;;;;;8.52;5.22;;;;;26.30;101057.00;;;;10469340;28;20212;-79
2021/09/17 13:52:27;;;;;;;4.50;3.88;;;;;26.20;101043.00;;;;10480740;28;20556;-79
2021/09/17 13:57:28;;;;;;;5.65;4.78;;;;;26.10;101044.00;;;;10472935;28;20228;-78
2021/09/17 14:02:29;;;;;;;6.97;5.72;;;;;25.40;101047.00;;;;10466435;28;20216;-79
2021/09/17 14:07:31;;;;;;;5.45;4.82;;;;;25.90;101041.00;;;;10446879;28;20236;-79
2021/09/17 14:12:33;;;;;;;5.20;4.72;;;;;25.60;101033.00;;;;10494125;28;20217;-79
2021/09/17 14:17:35;;;;;;;7.13;4.40;;;;;25.20;101035.00;;;;10519421;28;20382;-79
2021/09/17 14:22:36;;;;;;;5.47;4.68;;;;;25.20;101027.00;;;;10483141;28;20219;-79
2021/09/17 14:27:39;;;;;;;5.32;4.07;;;;;25.40;101024.00;;;;10476710;28;20205;-79
2021/09/17 14:32:41;;;;;;;4.40;4.00;;;;;24.70;101029.00;;;;10498897;28;20230;-79
2021/09/17 14:37:42;;;;;;;4.38;3.85;;;;;24.20;101036.00;;;;10490162;28;20276;-78
2021/09/17 14:42:43;;;;;;;5.93;3.75;;;;;24.00;101033.00;;;;10480692;28;20280;-78
2021/09/17 14:47:44;;;;;;;4.80;3.55;;;;;23.70;101025.00;;;;10482963;28;20200;-78
2021/09/17 14:52:46;;;;;;;3.58;3.25;;;;;23.80;101011.00;;;;10502224;28;20244;-80
2021/09/17 14:57:47;;;;;;;4.50;4.10;;;;;23.80;101015.00;;;;10504544;28;20201;-77
2021/09/17 15:02:48;;;;;;;5.03;3.97;;;;;23.50;101016.00;;;;10491933;28;20208;-79
2021/09/17 15:07:50;;;;;;;4.45;3.60;;;;;23.40;101008.00;;;;10496173;28;20200;-78
2021/09/17 15:12:51;;;;;;;5.20;3.35;;;;;23.30;101016.00;;;;10483525;28;20228;-78
2021/09/17 15:17:53;;;;;;;5.57;4.05;;;;;23.30;101010.00;;;;10500660;28;20272;-77
2021/09/17 15:22:54;;;;;;;3.97;3.13;;;;;23.20;101010.00;;;;10486764;28;20287;-78
2021/09/17 15:27:56;;;;;;;3.38;3.08;;;;;23.20;101006.00;;;;10508764;28;20808;-78
2021/09/17 15:32:57;;;;;;;5.07;4.13;;;;;23.10;101010.00;;;;10519102;28;20227;-78
2021/09/17 15:38:00;;;;;;;7.18;5.03;;;;;22.90;101001.00;;;;10480497;28;20735;-78
2021/09/17 15:43:02;;;;;;;5.32;4.38;;;;;22.60;101002.00;;;;10466926;28;20212;-80
2021/09/17 15:48:04;;;;;;;4.80;4.07;;;;;22.40;100999.00;;;;10505527;28;20223;-80
2021/09/17 15:53:05;;;;;;;5.22;4.57;;;;;22.30;100996.00;;;;10473069;28;20208;-79
2021/09/17 15:58:06;;;;;;;6.10;5.50;;;;;22.30;100999.00;;;;10508905;28;20196;-77
2021/09/17 16:03:08;;;;;;;6.07;5.47;;;;;22.20;101009.00;;;;10487379;28;20300;-77
2021/09/17 16:08:09;;;;;;;6.95;6.05;;;;;22.20;100994.00;;;;10505873;28;20233;-78
2021/09/17 16:13:11;;;;;;;7.78;5.95;;;;;22.10;100997.00;;;;10454588;28;20271;-78
2021/09/17 16:18:12;;;;;;;9.27;5.90;;;;;22.10;100994.00;;;;10474832;28;20254;-78
2021/09/17 16:23:13;;;;;;;8.18;6.07;;;;;21.90;100998.00;;;;10479364;28;20229;-79
2021/09/17 16:28:15;;;;;;;6.35;5.30;;;;;21.80;101000.00;;;;10464415;28;20234;-80
2021/09/17 16:33:18;;;;;;;7.63;5.70;;;;;21.60;100998.00;;;;10487489;28;20331;-77
2021/09/17 16:38:20;;;;;;;5.95;5.07;;;;;21.50;100990.00;;;;10459969;28;20612;-77
2021/09/17 16:43:21;;;;;;;5.43;4.93;;;;;21.30;100993.00;;;;10451530;28;20208;-78
2021/09/17 16:48:25;;;;;;;6.63;5.65;;;;;21.20;100998.00;;;;10487776;28;20233;-79
2021/09/17 16:53:30;;;;;;;6.18;4.93;;;;;21.10;100997.00;;;;10497545;28;20217;-79
2021/09/17 16:58:32;;;;;;;5.88;5.00;;;;;20.90;100994.00;;;;10501890;28;20279;-79
2021/09/17 17:03:35;;;;;;;8.30;7.47;;;;;20.60;100997.00;;;;10481555;28;20270;-80
2021/09/17 17:08:37;;;;;;;9.10;7.38;;;;;20.40;100984.00;;;;10492260;28;20185;-79
2021/09/17 17:13:38;;;;;;;10.93;9.02;;;;;20.30;100983.00;;;;10488430;28;20212;-79
2021/09/17 17:18:41;;;;;;;9.85;8.73;;;;;20.10;100985.00;;;;10483580;28;20216;-79
2021/09/17 17:23:51;;;;;;;8.05;7.25;;;;;19.90;100980.00;;;;10481969;28;20208;-79
2021/09/17 17:28:53;;;;;;;8.20;7.35;;;;;19.60;100982.00;;;;10465745;28;20216;-80
2021/09/17 17:33:56;;;;;;;9.23;7.60;;;;;19.40;100975.00;;;;10466017;28;20934;-80
2021/09/17 17:38:57;;;;;;;9.73;8.07;;;;;19.20;100985.00;;;;10495050;28;20247;-80
2021/09/17 17:43:59;;;;;;;8.32;7.13;;;;;18.90;100986.00;;;;10462431;28;20902;-79
2021/09/17 17:49:03;;;;;;;10.13;8.32;;;;;18.60;100984.00;;;;10465719;28;20209;-79
2021/09/17 17:54:06;;;;;;;9.57;8.57;;;;;18.40;100977.00;;;;10487088;28;20215;-79
2021/09/17 17:59:07;;;;;;;11.43;9.13;;;;;18.20;100981.00;;;;10520482;28;20197;-79
2021/09/17 18:04:10;;;;;;;8.82;8.00;;;;;18.00;100985.00;;;;10513161;27;20745;-80
2021/09/17 18:09:12;;;;;;;8.45;7.15;;;;;17.90;100989.00;;;;10522140;28;20215;-80
2021/09/17 18:14:15;;;;;;;8.05;7.25;;;;;17.70;100997.00;;;;10514324;28;20184;-79
2021/09/17 18:19:17;;;;;;;8.48;7.68;;;;;17.60;101007.00;;;;10542368;28;20220;-79
2021/09/17 18:24:18;;;;;;;10.35;8.63;;;;;17.50;101003.00;;;;10511534;27;20235;-79
2021/09/17 18:29:20;;;;;;;9.60;8.60;;;;;17.30;101018.00;;;;10536292;27;20756;-79
2021/09/17 18:34:21;;;;;;;10.73;8.95;;;;;17.30;101019.00;;;;10534534;27;20192;-79
2021/09/17 18:39:23;;;;;;;11.68;8.77;;;;;17.20;101028.00;;;;10508724;27;20265;-79
2021/09/17 18:44:25;;;;;;;10.00;8.80;;;;;17.10;101038.00;;;;10534343;27;20219;-79
2021/09/17 18:49:26;;;;;;;13.65;9.90;;;;;17.00;101040.00;;;;10533343;27;20247;-79
2021/09/17 18:54:28;;;;;;;15.68;12.35;;;;;16.90;101044.00;;;;10533316;27;20196;-79
2021/09/17 18:59:30;;;;;;;13.30;11.93;;;;;16.90;101049.00;;;;10531535;28;20214;-79
2021/09/17 19:04:31;;;;;;;15.40;13.23;;;;;16.80;101055.00;;;;10505812;27;20207;-79
2021/09/17 19:09:33;;;;;;;17.08;13.85;;;;;16.70;101064.00;;;;10507465;28;20220;-79
2021/09/17 19:14:34;;;;;;;17.63;12.73;;;;;16.70;101069.00;;;;10503552;28;20197;-79
2021/09/17 19:19:36;;;;;;;16.38;12.50;;;;;16.60;101074.00;;;;10529133;28;20204;-79
2021/09/17 19:24:38;;;;;;;15.88;12.30;;;;;16.50;101072.00;;;;10546422;28;20188;-79
2021/09/17 19:29:41;;;;;;;13.52;11.25;;;;;16.40;101078.00;;;;10511134;27;20217;-79
2021/09/17 19:34:47;;;;;;;13.00;11.48;;;;;16.20;101074.00;;;;10522246;28;20235;-79
2021/09/17 19:39:50;;;;;;;14.57;12.88;;;;;16.10;101064.00;;;;10520170;28;20262;-79
2021/09/17 19:44:51;;;;;;;15.65;12.82;;;;;16.00;101074.00;;;;10542809;28;20222;-79
2021/09/17 19:49:52;;;;;;;19.05;15.50;;;;;16.00;101061.00;;;;10544544;27;20215;-79
2021/09/17 19:54:55;;;;;;;18.02;15.10;;;;;15.90;101063.00;;;;10525908;28;20204;-79
2021/09/17 19:59:56;;;;;;;17.83;14.90;;;;;15.90;101068.00;;;;10528352;28;20298;-80
2021/09/17 20:04:57;;;;;;;20.35;14.27;;;;;15.80;101072.00;;;;10538766;27;20200;-79
2021/09/17 20:09:59;;;;;;;16.37;12.67;;;;;15.70;101068.00;;;;10526347;27;20218;-79
2021/09/17 20:15:02;;;;;;;16.20;13.47;;;;;15.60;101074.00;;;;10511300;27;20697;-79
2021/09/17 20:20:04;;;;;;;16.73;13.10;;;;;15.50;101079.00;;;;10533921;27;20195;-79
2021/09/17 20:25:09;;;;;;;17.17;14.20;;;;;15.40;101072.00;;;;10518423;27;20201;-79
2021/09/17 20:30:10;;;;;;;17.17;14.53;;;;;15.40;101076.00;;;;10536974;27;20907;-79
2021/09/17 20:35:18;;;;;;;19.27;15.77;;;;;15.30;101075.00;;;;10517437;27;20191;-79
2021/09/17 20:40:21;;;;;;;17.90;15.17;;;;;15.30;101078.00;;;;10519941;28;20227;-79
2021/09/17 20:45:24;;;;;;;19.10;15.97;;;;;15.20;101081.00;;;;10530288;27;20721;-79
2021/09/17 20:50:26;;;;;;;17.30;14.37;;;;;15.10;101089.00;;;;10539786;27;20261;-78
2021/09/17 20:55:27;;;;;;;19.50;15.43;;;;;15.10;101086.00;;;;10503328;28;20203;-79
2021/09/17 21:00:28;;;;;;;20.37;16.47;;;;;15.00;101091.00;;;;10533732;28;20195;-79
2021/09/17 21:05:33;;;;;;;18.97;15.87;;;;;14.90;101090.00;;;;10545352;28;20699;-79
2021/09/17 21:10:34;;;;;;;24.00;18.30;;;;;14.80;101096.00;;;;10538813;27;20246;-79
2021/09/17 21:15:35;;;;;;;20.30;17.50;;;;;14.80;101095.00;;;;10532258;27;20266;-79
2021/09/17 21:20:36;;;;;;;24.30;18.07;;;;;14.70;101087.00;;;;10512873;27;20199;-81
2021/09/17 21:25:38;;;;;;;25.83;19.83;;;;;14.70;101100.00;;;;10502425;28;20196;-79
2021/09/17 21:30:39;;;;;;;26.87;20.10;;;;;14.70;101095.00;;;;10518436;27;20208;-78
2021/09/17 21:35:41;;;;;;;30.60;22.27;;;;;14.70;101094.00;;;;10508722;28;20196;-79
2021/09/17 21:40:42;;;;;;;27.53;21.00;;;;;14.70;101103.00;;;;10513798;28;20610;-79
2021/09/17 21:45:43;;;;;;;25.83;20.57;;;;;14.60;101096.00;;;;10528506;28;20215;-79
2021/09/17 21:50:45;;;;;;;25.33;19.67;;;;;14.50;101103.00;;;;10507211;28;20239;-78
2021/09/17 21:55:46;;;;;;;25.37;19.33;;;;;14.50;101105.00;;;;10503556;28;20214;-79
2021/09/17 22:00:49;;;;;;;23.50;18.10;;;;;14.40;101111.00;;;;10491951;28;20197;-78
2021/09/17 22:05:50;;;;;;;20.13;17.63;;;;;14.30;101112.00;;;;10499076;28;20268;-79
2021/09/17 22:10:51;;;;;;;21.70;16.37;;;;;14.20;101109.00;;;;10516190;28;20312;-78
2021/09/17 22:15:52;;;;;;;20.83;16.67;;;;;14.10;101110.00;;;;10486531;27;20232;-78
2021/09/17 22:20:53;;;;;;;17.10;14.87;;;;;14.00;101106.00;;;;10518884;28;20207;-78
2021/09/17 22:25:54;;;;;;;18.23;15.23;;;;;14.00;101103.00;;;;10517744;27;20276;-78
2021/09/17 22:30:56;;;;;;;19.17;15.70;;;;;13.90;101110.00;;;;10486913;28;20223;-78
2021/09/17 22:35:58;;;;;;;19.67;16.00;;;;;13.90;101109.00;;;;10512673;27;20196;-78
2021/09/17 22:40:59;;;;;;;21.20;17.13;;;;;13.80;101109.00;;;;10532853;27;20223;-78
2021/09/17 22:46:00;;;;;;;20.30;15.57;;;;;13.80;101102.00;;;;10501739;28;20200;-78
2021/09/17 22:51:02;;;;;;;17.90;15.30;;;;;13.70;101106.00;;;;10503007;27;20220;-78
2021/09/17 22:56:03;;;;;;;22.80;17.40;;;;;13.60;101100.00;;;;10498617;27;20200;-78
2021/09/17 23:01:04;;;;;;;19.67;16.40;;;;;13.60;101088.00;;;;10526765;28;20766;-78
2021/09/17 23:06:06;;;;;;;19.00;16.77;;;;;13.50;101084.00;;;;10551999;27;20664;-78
2021/09/17 23:11:10;;;;;;;21.60;16.83;;;;;13.50;101084.00;;;;10530554;28;20224;-78
2021/09/17 23:16:13;;;;;;;26.43;20.13;;;;;13.50;101081.00;;;;10561538;27;20323;-78
2021/09/17 23:21:14;;;;;;;32.80;23.77;;;;;13.40;101074.00;;;;10505290;28;20346;-77
2021/09/17 23:26:16;;;;;;;41.13;27.57;;;;;13.40;101075.00;;;;10510474;27;20419;-78
2021/09/17 23:31:17;;;;;;;37.03;25.93;;;;;13.40;101068.00;;;;10521166;28;20223;-78
2021/09/17 23:36:19;;;;;;;36.03;25.37;;;;;13.30;101064.00;;;;10501361;28;20680;-78
2021/09/17 23:41:20;;;;;;;34.80;25.00;;;;;13.30;101061.00;;;;10532405;27;20220;-78
2021/09/17 23:46:22;;;;;;;34.27;24.80;;;;;13.20;101067.00;;;;10511298;27;20197;-78
2021/09/17 23:51:24;;;;;;;30.63;23.23;;;;;13.10;101062.00;;;;10513779;28;20220;-78
2021/09/17 23:56:25;;;;;;;33.07;24.13;;;;;13.10;101070.00;;;;10539759;28;20669;-79
